sensor_id;sensor_type;location;lat;lon;timestamp;P1;durP1;ratioP1;P2;durP2;ratioP2
62535;SDS011;48587;47.514;18.918;2022-07-10T00:01:18;1.40;;;0.60;;
62535;SDS011;48587;47.514;18.918;2022-07-10T00:06:19;1.10;;;0.50;;
62535;SDS011;48587;47.514;18.918;2022-07-10T00:11:20;1.70;;;1.00;;
62535;SDS011;48587;47.514;18.918;2022-07-10T00:16:21;1.30;;;0.80;;
62535;SDS011;48587;47.514;18.918;2022-07-10T00:21:22;0.80;;;0.60;;
62535;SDS011;48587;47.514;18.918;2022-07-10T00:26:23;1.00;;;0.80;;
62535;SDS011;48587;47.514;18.918;2022-07-10T00:31:24;2.50;;;0.60;;
62535;SDS011;48587;47.514;18.918;2022-07-10T00:36:25;1.00;;;0.70;;
62535;SDS011;48587;47.514;18.918;2022-07-10T00:41:26;1.10;;;0.70;;
62535;SDS011;48587;47.514;18.918;2022-07-10T00:46:27;1.20;;;0.70;;
62535;SDS011;48587;47.514;18.918;2022-07-10T00:51:29;1.30;;;0.70;;
62535;SDS011;48587;47.514;18.918;2022-07-10T00:56:31;1.10;;;0.70;;
62535;SDS011;48587;47.514;18.918;2022-07-10T01:01:32;1.20;;;0.70;;
62535;SDS011;48587;47.514;18.918;2022-07-10T01:06:33;1.50;;;0.70;;
62535;SDS011;48587;47.514;18.918;2022-07-10T01:11:34;1.40;;;0.70;;
62535;SDS011;48587;47.514;18.918;2022-07-10T01:16:35;1.00;;;0.60;;
62535;SDS011;48587;47.514;18.918;2022-07-10T01:21:37;1.30;;;0.90;;
62535;SDS011;48587;47.514;18.918;2022-07-10T01:26:38;1.20;;;0.80;;
62535;SDS011;48587;47.514;18.918;2022-07-10T01:31:43;1.40;;;0.70;;
62535;SDS011;48587;47.514;18.918;2022-07-10T01:36:45;0.90;;;0.50;;
62535;SDS011;48587;47.514;18.918;2022-07-10T01:41:46;1.50;;;0.80;;
62535;SDS011;48587;47.514;18.918;2022-07-10T01:46:48;1.30;;;0.80;;
62535;SDS011;48587;47.514;18.918;2022-07-10T01:51:49;2.40;;;0.90;;
62535;SDS011;48587;47.514;18.918;2022-07-10T01:56:50;1.20;;;0.70;;
62535;SDS011;48587;47.514;18.918;2022-07-10T02:01:53;1.00;;;0.70;;
62535;SDS011;48587;47.514;18.918;2022-07-10T02:06:54;1.20;;;0.80;;
62535;SDS011;48587;47.514;18.918;2022-07-10T02:11:55;1.30;;;0.80;;
62535;SDS011;48587;47.514;18.918;2022-07-10T02:16:56;2.10;;;1.00;;
62535;SDS011;48587;47.514;18.918;2022-07-10T02:21:57;1.60;;;0.90;;
62535;SDS011;48587;47.514;18.918;2022-07-10T02:26:58;1.90;;;1.00;;
62535;SDS011;48587;47.514;18.918;2022-07-10T02:31:59;1.90;;;0.90;;
62535;SDS011;48587;47.514;18.918;2022-07-10T02:37:00;1.40;;;1.00;;
62535;SDS011;48587;47.514;18.918;2022-07-10T02:42:01;1.60;;;1.20;;
62535;SDS011;48587;47.514;18.918;2022-07-10T02:47:02;2.40;;;1.00;;
62535;SDS011;48587;47.514;18.918;2022-07-10T02:52:03;2.10;;;0.90;;
62535;SDS011;48587;47.514;18.918;2022-07-10T02:57:05;1.70;;;1.00;;
62535;SDS011;48587;47.514;18.918;2022-07-10T03:02:06;2.50;;;1.20;;
62535;SDS011;48587;47.514;18.918;2022-07-10T03:07:08;2.70;;;1.80;;
62535;SDS011;48587;47.514;18.918;2022-07-10T03:12:08;2.30;;;1.50;;
62535;SDS011;48587;47.514;18.918;2022-07-10T03:17:09;1.90;;;1.20;;
62535;SDS011;48587;47.514;18.918;2022-07-10T03:22:10;2.70;;;1.60;;
62535;SDS011;48587;47.514;18.918;2022-07-10T03:27:11;1.90;;;1.40;;
62535;SDS011;48587;47.514;18.918;2022-07-10T03:32:12;2.20;;;1.50;;
62535;SDS011;48587;47.514;18.918;2022-07-10T03:37:13;2.50;;;1.30;;
62535;SDS011;48587;47.514;18.918;2022-07-10T03:42:14;2.10;;;1.40;;
62535;SDS011;48587;47.514;18.918;2022-07-10T03:47:15;2.20;;;1.20;;
62535;SDS011;48587;47.514;18.918;2022-07-10T03:52:16;1.70;;;1.20;;
62535;SDS011;48587;47.514;18.918;2022-07-10T03:57:17;1.90;;;1.50;;
62535;SDS011;48587;47.514;18.918;2022-07-10T04:02:37;2.80;;;1.30;;
62535;SDS011;48587;47.514;18.918;2022-07-10T04:07:37;1.80;;;1.20;;
62535;SDS011;48587;47.514;18.918;2022-07-10T04:12:38;1.60;;;1.00;;
62535;SDS011;48587;47.514;18.918;2022-07-10T04:17:39;1.70;;;1.10;;
62535;SDS011;48587;47.514;18.918;2022-07-10T04:22:40;1.80;;;1.20;;
62535;SDS011;48587;47.514;18.918;2022-07-10T04:27:41;1.90;;;1.30;;
62535;SDS011;48587;47.514;18.918;2022-07-10T04:32:42;2.70;;;1.20;;
62535;SDS011;48587;47.514;18.918;2022-07-10T04:37:43;2.40;;;1.50;;
62535;SDS011;48587;47.514;18.918;2022-07-10T04:42:44;2.50;;;1.60;;
62535;SDS011;48587;47.514;18.918;2022-07-10T04:47:45;2.60;;;1.40;;
62535;SDS011;48587;47.514;18.918;2022-07-10T04:52:46;1.90;;;1.40;;
62535;SDS011;48587;47.514;18.918;2022-07-10T04:57:47;1.90;;;1.30;;
62535;SDS011;48587;47.514;18.918;2022-07-10T05:02:48;3.50;;;1.30;;
62535;SDS011;48587;47.514;18.918;2022-07-10T05:07:49;1.70;;;1.20;;
62535;SDS011;48587;47.514;18.918;2022-07-10T05:12:50;2.20;;;1.40;;
62535;SDS011;48587;47.514;18.918;2022-07-10T05:17:51;4.00;;;1.40;;
62535;SDS011;48587;47.514;18.918;2022-07-10T05:22:52;2.10;;;1.30;;
62535;SDS011;48587;47.514;18.918;2022-07-10T05:27:52;2.40;;;1.60;;
62535;SDS011;48587;47.514;18.918;2022-07-10T05:32:53;1.70;;;1.50;;
62535;SDS011;48587;47.514;18.918;2022-07-10T05:37:55;3.00;;;1.60;;
62535;SDS011;48587;47.514;18.918;2022-07-10T05:42:55;2.80;;;1.60;;
62535;SDS011;48587;47.514;18.918;2022-07-10T05:47:56;2.70;;;1.70;;
62535;SDS011;48587;47.514;18.918;2022-07-10T05:52:57;3.10;;;1.50;;
62535;SDS011;48587;47.514;18.918;2022-07-10T05:57:58;3.40;;;1.60;;
62535;SDS011;48587;47.514;18.918;2022-07-10T06:02:59;2.70;;;1.60;;
62535;SDS011;48587;47.514;18.918;2022-07-10T06:08:00;3.20;;;1.60;;
62535;SDS011;48587;47.514;18.918;2022-07-10T06:13:01;3.70;;;1.40;;
62535;SDS011;48587;47.514;18.918;2022-07-10T06:18:02;2.90;;;1.60;;
62535;SDS011;48587;47.514;18.918;2022-07-10T06:23:03;3.60;;;1.60;;
62535;SDS011;48587;47.514;18.918;2022-07-10T06:28:04;2.40;;;1.40;;
62535;SDS011;48587;47.514;18.918;2022-07-10T06:33:05;3.20;;;1.30;;
62535;SDS011;48587;47.514;18.918;2022-07-10T06:38:06;3.10;;;1.50;;
62535;SDS011;48587;47.514;18.918;2022-07-10T06:43:07;2.60;;;1.30;;
62535;SDS011;48587;47.514;18.918;2022-07-10T06:48:08;2.10;;;1.30;;
62535;SDS011;48587;47.514;18.918;2022-07-10T06:53:09;2.00;;;1.20;;
62535;SDS011;48587;47.514;18.918;2022-07-10T06:58:09;2.90;;;1.00;;
62535;SDS011;48587;47.514;18.918;2022-07-10T07:03:10;2.00;;;1.40;;
62535;SDS011;48587;47.514;18.918;2022-07-10T07:08:11;2.00;;;1.40;;
62535;SDS011;48587;47.514;18.918;2022-07-10T07:13:13;3.30;;;1.70;;
62535;SDS011;48587;47.514;18.918;2022-07-10T07:18:14;1.90;;;1.30;;
62535;SDS011;48587;47.514;18.918;2022-07-10T07:23:16;1.70;;;1.00;;
62535;SDS011;48587;47.514;18.918;2022-07-10T07:28:17;1.30;;;0.90;;
62535;SDS011;48587;47.514;18.918;2022-07-10T07:33:20;2.20;;;1.10;;
62535;SDS011;48587;47.514;18.918;2022-07-10T07:38:20;1.30;;;0.90;;
62535;SDS011;48587;47.514;18.918;2022-07-10T07:43:21;3.40;;;1.00;;
62535;SDS011;48587;47.514;18.918;2022-07-10T07:48:22;8.00;;;1.20;;
62535;SDS011;48587;47.514;18.918;2022-07-10T07:53:23;2.90;;;1.20;;
62535;SDS011;48587;47.514;18.918;2022-07-10T07:58:24;3.30;;;1.00;;
62535;SDS011;48587;47.514;18.918;2022-07-10T08:03:25;6.40;;;1.10;;
62535;SDS011;48587;47.514;18.918;2022-07-10T08:08:26;2.00;;;0.90;;
62535;SDS011;48587;47.514;18.918;2022-07-10T08:13:27;2.80;;;1.20;;
62535;SDS011;48587;47.514;18.918;2022-07-10T08:18:29;1.90;;;1.00;;
62535;SDS011;48587;47.514;18.918;2022-07-10T08:23:30;3.70;;;1.00;;
62535;SDS011;48587;47.514;18.918;2022-07-10T08:28:31;4.50;;;0.90;;
62535;SDS011;48587;47.514;18.918;2022-07-10T08:33:32;4.40;;;1.00;;
62535;SDS011;48587;47.514;18.918;2022-07-10T08:38:33;1.50;;;0.90;;
62535;SDS011;48587;47.514;18.918;2022-07-10T08:43:33;3.40;;;1.10;;
62535;SDS011;48587;47.514;18.918;2022-07-10T08:48:34;2.60;;;1.10;;
62535;SDS011;48587;47.514;18.918;2022-07-10T08:53:36;1.50;;;0.90;;
62535;SDS011;48587;47.514;18.918;2022-07-10T08:58:39;2.20;;;1.00;;
62535;SDS011;48587;47.514;18.918;2022-07-10T09:03:40;1.50;;;0.70;;
62535;SDS011;48587;47.514;18.918;2022-07-10T09:08:44;2.20;;;0.90;;
62535;SDS011;48587;47.514;18.918;2022-07-10T09:14:01;1.60;;;0.90;;
62535;SDS011;48587;47.514;18.918;2022-07-10T09:19:21;2.10;;;0.90;;
62535;SDS011;48587;47.514;18.918;2022-07-10T09:24:25;1.30;;;0.80;;
62535;SDS011;48587;47.514;18.918;2022-07-10T09:29:26;1.20;;;0.80;;
62535;SDS011;48587;47.514;18.918;2022-07-10T09:34:37;3.30;;;1.00;;
62535;SDS011;48587;47.514;18.918;2022-07-10T09:45:09;2.80;;;0.70;;
62535;SDS011;48587;47.514;18.918;2022-07-10T09:55:20;1.20;;;0.70;;
62535;SDS011;48587;47.514;18.918;2022-07-10T10:00:23;1.10;;;0.70;;
62535;SDS011;48587;47.514;18.918;2022-07-10T10:05:28;1.20;;;0.60;;
62535;SDS011;48587;47.514;18.918;2022-07-10T10:10:34;2.10;;;0.70;;
62535;SDS011;48587;47.514;18.918;2022-07-10T10:15:37;5.30;;;0.90;;
62535;SDS011;48587;47.514;18.918;2022-07-10T10:20:38;1.70;;;0.80;;
62535;SDS011;48587;47.514;18.918;2022-07-10T10:25:43;1.40;;;0.70;;
62535;SDS011;48587;47.514;18.918;2022-07-10T10:30:45;0.80;;;0.50;;
62535;SDS011;48587;47.514;18.918;2022-07-10T10:35:47;1.90;;;0.60;;
62535;SDS011;48587;47.514;18.918;2022-07-10T10:40:47;1.40;;;0.50;;
62535;SDS011;48587;47.514;18.918;2022-07-10T10:45:49;3.20;;;0.70;;
62535;SDS011;48587;47.514;18.918;2022-07-10T10:50:53;2.10;;;1.00;;
62535;SDS011;48587;47.514;18.918;2022-07-10T11:01:05;1.50;;;0.80;;
62535;SDS011;48587;47.514;18.918;2022-07-10T11:06:06;2.10;;;0.70;;
62535;SDS011;48587;47.514;18.918;2022-07-10T11:16:31;0.90;;;0.60;;
62535;SDS011;48587;47.514;18.918;2022-07-10T11:21:37;1.40;;;0.70;;
62535;SDS011;48587;47.514;18.918;2022-07-10T11:31:56;1.70;;;0.80;;
62535;SDS011;48587;47.514;18.918;2022-07-10T11:36:56;1.90;;;0.70;;
62535;SDS011;48587;47.514;18.918;2022-07-10T11:41:57;2.10;;;0.80;;
62535;SDS011;48587;47.514;18.918;2022-07-10T11:46:59;1.50;;;0.80;;
62535;SDS011;48587;47.514;18.918;2022-07-10T11:52:01;3.40;;;0.60;;
62535;SDS011;48587;47.514;18.918;2022-07-10T11:57:04;1.70;;;0.70;;
62535;SDS011;48587;47.514;18.918;2022-07-10T12:02:07;2.70;;;0.40;;
62535;SDS011;48587;47.514;18.918;2022-07-10T12:07:08;2.00;;;0.50;;
62535;SDS011;48587;47.514;18.918;2022-07-10T12:12:09;0.70;;;0.50;;
62535;SDS011;48587;47.514;18.918;2022-07-10T12:17:10;1.80;;;0.50;;
62535;SDS011;48587;47.514;18.918;2022-07-10T12:22:17;2.20;;;0.50;;
62535;SDS011;48587;47.514;18.918;2022-07-10T12:32:41;1.50;;;0.60;;
62535;SDS011;48587;47.514;18.918;2022-07-10T12:37:48;2.80;;;0.50;;
62535;SDS011;48587;47.514;18.918;2022-07-10T12:42:49;1.90;;;0.60;;
62535;SDS011;48587;47.514;18.918;2022-07-10T12:47:51;4.10;;;0.70;;
62535;SDS011;48587;47.514;18.918;2022-07-10T12:53:08;3.00;;;0.70;;
62535;SDS011;48587;47.514;18.918;2022-07-10T12:58:10;2.40;;;0.60;;
62535;SDS011;48587;47.514;18.918;2022-07-10T13:03:20;2.90;;;0.70;;
62535;SDS011;48587;47.514;18.918;2022-07-10T13:08:25;5.20;;;1.00;;
62535;SDS011;48587;47.514;18.918;2022-07-10T13:13:26;0.80;;;0.50;;
62535;SDS011;48587;47.514;18.918;2022-07-10T13:18:29;1.30;;;0.70;;
62535;SDS011;48587;47.514;18.918;2022-07-10T13:23:30;3.10;;;0.80;;
62535;SDS011;48587;47.514;18.918;2022-07-10T13:28:31;0.80;;;0.60;;
62535;SDS011;48587;47.514;18.918;2022-07-10T13:33:33;1.60;;;0.80;;
62535;SDS011;48587;47.514;18.918;2022-07-10T13:38:34;3.40;;;0.90;;
62535;SDS011;48587;47.514;18.918;2022-07-10T13:43:35;1.80;;;0.80;;
62535;SDS011;48587;47.514;18.918;2022-07-10T13:48:36;1.90;;;1.00;;
62535;SDS011;48587;47.514;18.918;2022-07-10T13:53:37;1.30;;;0.50;;
62535;SDS011;48587;47.514;18.918;2022-07-10T13:58:38;1.60;;;0.60;;
62535;SDS011;48587;47.514;18.918;2022-07-10T14:03:39;2.10;;;0.70;;
62535;SDS011;48587;47.514;18.918;2022-07-10T14:08:40;1.50;;;0.80;;
62535;SDS011;48587;47.514;18.918;2022-07-10T14:13:41;4.80;;;0.70;;
62535;SDS011;48587;47.514;18.918;2022-07-10T14:18:42;2.00;;;0.80;;
62535;SDS011;48587;47.514;18.918;2022-07-10T14:23:44;2.50;;;0.60;;
62535;SDS011;48587;47.514;18.918;2022-07-10T14:28:45;1.40;;;0.70;;
62535;SDS011;48587;47.514;18.918;2022-07-10T14:33:47;1.40;;;0.60;;
62535;SDS011;48587;47.514;18.918;2022-07-10T14:38:48;1.70;;;0.70;;
62535;SDS011;48587;47.514;18.918;2022-07-10T14:43:49;2.70;;;0.70;;
62535;SDS011;48587;47.514;18.918;2022-07-10T14:48:50;2.10;;;0.70;;
62535;SDS011;48587;47.514;18.918;2022-07-10T14:53:52;1.90;;;0.50;;
62535;SDS011;48587;47.514;18.918;2022-07-10T14:58:54;4.40;;;0.50;;
62535;SDS011;48587;47.514;18.918;2022-07-10T15:03:55;1.90;;;1.00;;
62535;SDS011;48587;47.514;18.918;2022-07-10T15:08:58;2.50;;;0.50;;
62535;SDS011;48587;47.514;18.918;2022-07-10T15:13:59;5.60;;;0.50;;
62535;SDS011;48587;47.514;18.918;2022-07-10T15:19:00;1.30;;;0.50;;
62535;SDS011;48587;47.514;18.918;2022-07-10T15:24:01;1.40;;;0.50;;
62535;SDS011;48587;47.514;18.918;2022-07-10T15:29:02;2.60;;;0.80;;
62535;SDS011;48587;47.514;18.918;2022-07-10T15:34:10;2.80;;;0.70;;
62535;SDS011;48587;47.514;18.918;2022-07-10T15:39:14;1.80;;;0.50;;
62535;SDS011;48587;47.514;18.918;2022-07-10T15:44:15;0.80;;;0.40;;
62535;SDS011;48587;47.514;18.918;2022-07-10T15:49:16;4.90;;;0.70;;
62535;SDS011;48587;47.514;18.918;2022-07-10T15:54:17;2.80;;;0.50;;
62535;SDS011;48587;47.514;18.918;2022-07-10T15:59:19;3.60;;;0.40;;
62535;SDS011;48587;47.514;18.918;2022-07-10T16:04:23;4.00;;;0.60;;
62535;SDS011;48587;47.514;18.918;2022-07-10T16:09:25;1.30;;;0.50;;
62535;SDS011;48587;47.514;18.918;2022-07-10T16:14:25;1.00;;;0.60;;
62535;SDS011;48587;47.514;18.918;2022-07-10T16:19:26;4.50;;;0.60;;
62535;SDS011;48587;47.514;18.918;2022-07-10T16:24:28;7.10;;;1.10;;
62535;SDS011;48587;47.514;18.918;2022-07-10T16:29:29;4.00;;;0.90;;
62535;SDS011;48587;47.514;18.918;2022-07-10T16:34:31;2.20;;;0.80;;
62535;SDS011;48587;47.514;18.918;2022-07-10T16:39:32;3.80;;;0.90;;
62535;SDS011;48587;47.514;18.918;2022-07-10T16:44:33;4.80;;;0.60;;
62535;SDS011;48587;47.514;18.918;2022-07-10T16:49:34;2.90;;;0.60;;
62535;SDS011;48587;47.514;18.918;2022-07-10T16:54:35;2.20;;;0.40;;
62535;SDS011;48587;47.514;18.918;2022-07-10T16:59:37;2.40;;;0.40;;
62535;SDS011;48587;47.514;18.918;2022-07-10T17:04:37;1.90;;;0.50;;
62535;SDS011;48587;47.514;18.918;2022-07-10T17:09:38;2.60;;;0.40;;
62535;SDS011;48587;47.514;18.918;2022-07-10T17:14:39;4.00;;;0.60;;
62535;SDS011;48587;47.514;18.918;2022-07-10T17:19:40;0.90;;;0.40;;
62535;SDS011;48587;47.514;18.918;2022-07-10T17:24:41;4.20;;;0.50;;
62535;SDS011;48587;47.514;18.918;2022-07-10T17:29:42;3.00;;;0.40;;
62535;SDS011;48587;47.514;18.918;2022-07-10T17:34:44;3.70;;;0.60;;
62535;SDS011;48587;47.514;18.918;2022-07-10T17:39:45;1.60;;;0.20;;
62535;SDS011;48587;47.514;18.918;2022-07-10T17:44:46;2.30;;;0.40;;
62535;SDS011;48587;47.514;18.918;2022-07-10T17:49:46;1.80;;;0.50;;
62535;SDS011;48587;47.514;18.918;2022-07-10T17:54:47;3.10;;;0.20;;
62535;SDS011;48587;47.514;18.918;2022-07-10T17:59:49;0.80;;;0.40;;
62535;SDS011;48587;47.514;18.918;2022-07-10T18:04:50;0.50;;;0.20;;
62535;SDS011;48587;47.514;18.918;2022-07-10T18:09:51;1.10;;;0.40;;
62535;SDS011;48587;47.514;18.918;2022-07-10T18:14:52;1.00;;;0.30;;
62535;SDS011;48587;47.514;18.918;2022-07-10T18:19:53;1.50;;;0.30;;
62535;SDS011;48587;47.514;18.918;2022-07-10T18:24:58;0.70;;;0.30;;
62535;SDS011;48587;47.514;18.918;2022-07-10T18:29:59;1.70;;;0.50;;
62535;SDS011;48587;47.514;18.918;2022-07-10T18:34:59;0.60;;;0.20;;
62535;SDS011;48587;47.514;18.918;2022-07-10T18:40:00;1.10;;;0.40;;
62535;SDS011;48587;47.514;18.918;2022-07-10T18:45:02;0.70;;;0.30;;
62535;SDS011;48587;47.514;18.918;2022-07-10T18:50:03;2.50;;;0.50;;
62535;SDS011;48587;47.514;18.918;2022-07-10T18:55:05;1.40;;;0.40;;
62535;SDS011;48587;47.514;18.918;2022-07-10T19:00:09;1.60;;;0.50;;
62535;SDS011;48587;47.514;18.918;2022-07-10T19:05:11;1.70;;;0.40;;
62535;SDS011;48587;47.514;18.918;2022-07-10T19:10:12;0.30;;;0.30;;
62535;SDS011;48587;47.514;18.918;2022-07-10T19:15:13;2.10;;;0.50;;
62535;SDS011;48587;47.514;18.918;2022-07-10T19:20:14;2.00;;;0.50;;
62535;SDS011;48587;47.514;18.918;2022-07-10T19:25:17;1.80;;;0.50;;
62535;SDS011;48587;47.514;18.918;2022-07-10T19:30:18;2.00;;;0.70;;
62535;SDS011;48587;47.514;18.918;2022-07-10T19:35:19;1.80;;;0.40;;
62535;SDS011;48587;47.514;18.918;2022-07-10T19:40:20;0.90;;;0.40;;
62535;SDS011;48587;47.514;18.918;2022-07-10T19:45:21;4.40;;;0.40;;
62535;SDS011;48587;47.514;18.918;2022-07-10T19:50:23;1.20;;;0.30;;
62535;SDS011;48587;47.514;18.918;2022-07-10T19:55:24;1.90;;;0.50;;
62535;SDS011;48587;47.514;18.918;2022-07-10T20:00:25;1.10;;;0.50;;
62535;SDS011;48587;47.514;18.918;2022-07-10T20:05:27;1.00;;;0.30;;
62535;SDS011;48587;47.514;18.918;2022-07-10T20:10:28;1.10;;;0.40;;
62535;SDS011;48587;47.514;18.918;2022-07-10T20:15:30;2.50;;;0.60;;
62535;SDS011;48587;47.514;18.918;2022-07-10T20:20:30;1.60;;;0.50;;
62535;SDS011;48587;47.514;18.918;2022-07-10T20:25:31;1.30;;;0.50;;
62535;SDS011;48587;47.514;18.918;2022-07-10T20:30:32;2.00;;;0.50;;
62535;SDS011;48587;47.514;18.918;2022-07-10T20:35:33;1.20;;;0.40;;
62535;SDS011;48587;47.514;18.918;2022-07-10T20:40:34;1.10;;;0.60;;
62535;SDS011;48587;47.514;18.918;2022-07-10T20:45:35;2.30;;;0.60;;
62535;SDS011;48587;47.514;18.918;2022-07-10T20:50:36;0.90;;;0.40;;
62535;SDS011;48587;47.514;18.918;2022-07-10T20:55:37;1.20;;;0.50;;
62535;SDS011;48587;47.514;18.918;2022-07-10T21:00:38;5.10;;;0.60;;
62535;SDS011;48587;47.514;18.918;2022-07-10T21:05:39;3.30;;;0.50;;
62535;SDS011;48587;47.514;18.918;2022-07-10T21:10:40;3.00;;;0.70;;
62535;SDS011;48587;47.514;18.918;2022-07-10T21:15:41;0.50;;;0.30;;
62535;SDS011;48587;47.514;18.918;2022-07-10T21:20:42;0.50;;;0.40;;
62535;SDS011;48587;47.514;18.918;2022-07-10T21:25:44;1.00;;;0.40;;
62535;SDS011;48587;47.514;18.918;2022-07-10T21:30:45;0.40;;;0.40;;
62535;SDS011;48587;47.514;18.918;2022-07-10T21:35:46;0.70;;;0.40;;
62535;SDS011;48587;47.514;18.918;2022-07-10T21:40:47;1.50;;;0.50;;
62535;SDS011;48587;47.514;18.918;2022-07-10T21:45:48;1.80;;;0.40;;
62535;SDS011;48587;47.514;18.918;2022-07-10T21:50:49;2.30;;;0.50;;
62535;SDS011;48587;47.514;18.918;2022-07-10T21:55:50;1.00;;;0.50;;
62535;SDS011;48587;47.514;18.918;2022-07-10T22:00:52;0.80;;;0.40;;
62535;SDS011;48587;47.514;18.918;2022-07-10T22:05:53;1.40;;;0.40;;
62535;SDS011;48587;47.514;18.918;2022-07-10T22:10:53;1.10;;;0.60;;
62535;SDS011;48587;47.514;18.918;2022-07-10T22:15:54;0.70;;;0.40;;
62535;SDS011;48587;47.514;18.918;2022-07-10T22:20:55;0.90;;;0.40;;
62535;SDS011;48587;47.514;18.918;2022-07-10T22:25:56;1.40;;;0.60;;
62535;SDS011;48587;47.514;18.918;2022-07-10T22:30:57;1.30;;;0.50;;
62535;SDS011;48587;47.514;18.918;2022-07-10T22:36:21;1.30;;;0.40;;
62535;SDS011;48587;47.514;18.918;2022-07-10T22:41:23;0.50;;;0.40;;
62535;SDS011;48587;47.514;18.918;2022-07-10T22:46:24;1.60;;;0.50;;
62535;SDS011;48587;47.514;18.918;2022-07-10T22:51:25;1.20;;;0.50;;
62535;SDS011;48587;47.514;18.918;2022-07-10T22:56:26;1.80;;;0.70;;
62535;SDS011;48587;47.514;18.918;2022-07-10T23:01:27;4.30;;;1.30;;
62535;SDS011;48587;47.514;18.918;2022-07-10T23:06:28;1.40;;;0.90;;
62535;SDS011;48587;47.514;18.918;2022-07-10T23:11:29;3.20;;;0.70;;
62535;SDS011;48587;47.514;18.918;2022-07-10T23:16:30;1.20;;;0.50;;
62535;SDS011;48587;47.514;18.918;2022-07-10T23:21:31;1.40;;;0.50;;
62535;SDS011;48587;47.514;18.918;2022-07-10T23:26:32;2.10;;;0.80;;
62535;SDS011;48587;47.514;18.918;2022-07-10T23:31:33;3.40;;;0.60;;
62535;SDS011;48587;47.514;18.918;2022-07-10T23:36:34;3.80;;;0.80;;
62535;SDS011;48587;47.514;18.918;2022-07-10T23:41:35;2.70;;;0.60;;
62535;SDS011;48587;47.514;18.918;2022-07-10T23:46:35;2.40;;;0.60;;
62535;SDS011;48587;47.514;18.918;2022-07-10T23:51:36;1.50;;;0.80;;
62535;SDS011;48587;47.514;18.918;2022-07-10T23:56:37;1.90;;;0.60;;
